Time;durP1;ratioP1;P1;durP2;ratioP2;P2;SDS_P1;SDS_P2;PMS_P1;PMS_P2;Temp;Humidity;BMP_temperature;BMP_pressure;BME280_temperature;BME280_humidity;BME280_pressure;Samples;Min_cycle;Max_cycle;Signal;HPM_P1;HPM_P2
2022/08/25 00:02:09;;;;;;;5.73;5.23;;;21.70;99.90;;;;;;4928866;29;21032;-70
2022/08/25 00:05:09;;;;;;;5.57;5.07;;;21.70;99.90;;;;;;4929977;29;20484;-71
2022/08/25 00:08:05;;;;;;;6.77;5.40;;;21.60;99.90;;;;;;4931605;29;20451;-71
2022/08/25 00:10:55;;;;;;;6.00;5.50;;;21.60;99.90;;;;;;4935101;29;20571;-70
2022/08/25 00:13:53;;;;;;;6.00;5.50;;;21.60;99.90;;;;;;4930504;29;20467;-70
2022/08/25 00:16:42;;;;;;;5.13;4.73;;;21.60;99.90;;;;;;4928542;29;20507;-70
2022/08/25 00:19:34;;;;;;;6.33;4.97;;;21.60;99.90;;;;;;4930424;29;20514;-70
2022/08/25 00:22:22;;;;;;;4.93;4.60;;;21.50;99.90;;;;;;4933164;29;20448;-70
2022/08/25 00:25:11;;;;;;;5.50;5.10;;;21.50;99.90;;;;;;4932048;29;20567;-70
2022/08/25 00:27:59;;;;;;;5.43;4.93;;;21.50;99.90;;;;;;4933531;29;20624;-70
2022/08/25 00:30:53;;;;;;;6.17;5.07;;;21.50;99.90;;;;;;4930881;29;20483;-70
2022/08/25 00:33:46;;;;;;;5.93;5.37;;;21.40;99.90;;;;;;4930146;29;20479;-70
2022/08/25 00:36:41;;;;;;;5.73;5.20;;;21.40;99.90;;;;;;4930476;29;20840;-70
2022/08/25 00:39:39;;;;;;;6.00;5.30;;;21.40;99.90;;;;;;4929997;29;20483;-70
2022/08/25 00:42:27;;;;;;;5.83;5.23;;;21.30;99.90;;;;;;4929597;29;20889;-71
2022/08/25 00:45:15;;;;;;;5.50;4.70;;;21.30;99.90;;;;;;4931238;29;20536;-71
2022/08/25 00:48:10;;;;;;;6.53;5.07;;;21.30;99.90;;;;;;4929221;29;21171;-71
2022/08/25 00:51:04;;;;;;;5.83;5.30;;;21.30;99.90;;;;;;4932719;29;20546;-71
2022/08/25 00:53:57;;;;;;;5.90;5.40;;;21.20;99.90;;;;;;4929783;29;20491;-71
2022/08/25 00:56:46;;;;;;;5.10;4.70;;;21.20;99.90;;;;;;4929715;29;20499;-71
2022/08/25 00:59:37;;;;;;;5.73;5.27;;;21.10;99.90;;;;;;4931296;29;20650;-71
2022/08/25 01:02:27;;;;;;;6.67;5.40;;;21.10;99.90;;;;;;4930893;29;20550;-71
2022/08/25 01:05:18;;;;;;;6.23;5.83;;;21.10;99.90;;;;;;4929954;29;20487;-71
2022/08/25 01:08:12;;;;;;;5.73;5.23;;;21.10;99.90;;;;;;4925939;29;20452;-71
2022/08/25 01:11:07;;;;;;;5.60;5.10;;;21.00;99.90;;;;;;4930934;29;20470;-71
2022/08/25 01:14:01;;;;;;;5.40;4.90;;;21.00;99.90;;;;;;4932590;29;20476;-71
2022/08/25 01:16:54;;;;;;;8.50;5.40;;;21.00;99.90;;;;;;4934358;28;21293;-71
2022/08/25 01:19:51;;;;;;;5.47;5.07;;;21.00;99.90;;;;;;4930633;29;20676;-71
2022/08/25 01:22:44;;;;;;;6.53;5.83;;;21.00;99.90;;;;;;4930484;29;20844;-71
2022/08/25 01:25:51;;;;;;;5.97;5.47;;;20.90;99.90;;;;;;4932525;29;20486;-71
2022/08/25 01:32:01;;;;;;;7.00;6.30;;;20.90;99.90;;;;;;4927973;28;20492;-71
2022/08/25 01:34:53;;;;;;;5.87;5.37;;;20.80;99.90;;;;;;4932459;29;20562;-71
2022/08/25 01:37:44;;;;;;;5.67;5.17;;;20.80;99.90;;;;;;4930936;29;20510;-71
2022/08/25 01:40:38;;;;;;;6.17;5.57;;;20.80;99.90;;;;;;4932364;29;20567;-71
2022/08/25 01:43:35;;;;;;;6.80;5.73;;;20.80;99.90;;;;;;4933899;28;20452;-71
2022/08/25 01:46:28;;;;;;;5.97;5.33;;;20.80;99.90;;;;;;4931734;29;20852;-71
2022/08/25 01:49:20;;;;;;;5.70;5.20;;;20.70;99.90;;;;;;4932432;29;20456;-71
2022/08/25 01:52:14;;;;;;;6.77;6.10;;;20.70;99.90;;;;;;4928945;28;20542;-71
2022/08/25 01:55:09;;;;;;;6.23;5.63;;;20.70;99.90;;;;;;4925619;29;20614;-71
2022/08/25 01:58:01;;;;;;;6.07;5.50;;;20.70;99.90;;;;;;4928936;29;20539;-71
2022/08/25 02:00:53;;;;;;;5.77;5.27;;;20.70;99.90;;;;;;4929964;29;20452;-71
2022/08/25 02:03:43;;;;;;;6.70;5.67;;;20.60;99.90;;;;;;4929169;29;20594;-71
2022/08/25 02:06:34;;;;;;;6.00;5.40;;;20.60;99.90;;;;;;4921720;29;20503;-71
2022/08/25 02:09:32;;;;;;;5.80;5.30;;;20.60;99.90;;;;;;4925184;29;20822;-71
2022/08/25 02:12:29;;;;;;;6.40;5.90;;;20.60;99.90;;;;;;4929569;29;21026;-71
2022/08/25 02:15:23;;;;;;;6.33;5.70;;;20.50;99.90;;;;;;4930366;29;20484;-70
2022/08/25 02:18:14;;;;;;;6.90;6.30;;;20.60;99.90;;;;;;4929420;29;20591;-71
2022/08/25 02:21:03;;;;;;;6.70;5.27;;;20.50;99.90;;;;;;4934423;28;20465;-71
2022/08/25 02:23:52;;;;;;;5.73;5.33;;;20.50;99.90;;;;;;4933692;29;21078;-70
2022/08/25 02:26:41;;;;;;;5.93;5.43;;;20.50;99.90;;;;;;4929765;29;20551;-71
2022/08/25 02:29:33;;;;;;;5.30;4.90;;;20.50;99.90;;;;;;4924850;29;20508;-71
2022/08/25 02:32:24;;;;;;;6.00;5.33;;;20.40;99.90;;;;;;4928101;29;21134;-70
2022/08/25 02:35:17;;;;;;;5.70;5.20;;;20.40;99.90;;;;;;4927854;29;20883;-71
2022/08/25 02:38:06;;;;;;;6.57;6.00;;;20.40;99.90;;;;;;4925895;29;20494;-71
2022/08/25 02:40:59;;;;;;;6.37;5.83;;;20.30;99.90;;;;;;4932080;29;20521;-71
2022/08/25 02:43:54;;;;;;;6.10;5.50;;;20.30;99.90;;;;;;4932371;29;20538;-71
2022/08/25 02:46:43;;;;;;;7.13;5.83;;;20.30;99.90;;;;;;4932018;28;20583;-71
2022/08/25 02:49:41;;;;;;;5.60;5.20;;;20.30;99.90;;;;;;4928282;29;20546;-71
2022/08/25 02:52:29;;;;;;;6.50;6.00;;;20.30;99.90;;;;;;4928999;29;20566;-71
2022/08/25 02:55:19;;;;;;;8.43;6.30;;;20.20;99.90;;;;;;4926474;29;21568;-71
2022/08/25 02:58:13;;;;;;;6.97;5.53;;;20.20;99.90;;;;;;4926677;29;20487;-70
2022/08/25 03:01:01;;;;;;;5.60;5.20;;;20.20;99.90;;;;;;4929982;29;20518;-71
2022/08/25 03:03:58;;;;;;;6.13;5.53;;;20.20;99.90;;;;;;4926483;29;20956;-71
2022/08/25 03:06:47;;;;;;;6.40;5.90;;;20.20;99.90;;;;;;4929037;29;21182;-71
2022/08/25 03:09:41;;;;;;;6.27;5.67;;;20.10;99.90;;;;;;4924367;29;20976;-71
2022/08/25 03:12:34;;;;;;;6.20;5.70;;;20.10;99.90;;;;;;4927292;29;20530;-71
2022/08/25 03:15:24;;;;;;;8.23;6.27;;;20.10;99.90;;;;;;4928873;29;20507;-71
2022/08/25 03:18:17;;;;;;;6.20;5.60;;;20.10;99.90;;;;;;4928016;29;20527;-71
2022/08/25 03:21:07;;;;;;;5.87;5.40;;;20.00;99.90;;;;;;4931251;29;20567;-71
2022/08/25 03:24:02;;;;;;;6.03;5.30;;;20.00;99.90;;;;;;4928052;29;20610;-71
2022/08/25 03:26:57;;;;;;;6.90;6.30;;;20.00;99.90;;;;;;4925589;29;20588;-70
2022/08/25 03:29:48;;;;;;;6.80;6.10;;;20.00;99.90;;;;;;4926452;29;20559;-70
2022/08/25 03:32:38;;;;;;;6.73;6.03;;;20.00;99.90;;;;;;4926479;29;20459;-70
2022/08/25 03:35:29;;;;;;;6.80;6.20;;;20.00;99.90;;;;;;4924328;29;20619;-70
2022/08/25 03:38:19;;;;;;;6.50;6.00;;;19.90;99.90;;;;;;4926820;28;20530;-70
2022/08/25 03:41:22;;;;;;;5.70;5.20;;;19.90;99.90;;;;;;4927272;29;20582;-70
2022/08/25 03:44:16;;;;;;;6.57;5.30;;;19.90;99.90;;;;;;4927213;28;20498;-70
2022/08/25 03:47:23;;;;;;;5.70;5.20;;;19.90;99.90;;;;;;4925001;29;20887;-70
2022/08/25 03:50:16;;;;;;;6.23;5.73;;;19.90;99.90;;;;;;4928709;29;20829;-70
2022/08/25 03:53:06;;;;;;;5.97;5.47;;;19.90;99.90;;;;;;4927099;28;20552;-70
2022/08/25 03:56:08;;;;;;;6.00;5.50;;;19.80;99.90;;;;;;4924033;29;20618;-70
2022/08/25 03:58:58;;;;;;;5.50;5.00;;;19.80;99.90;;;;;;4925319;29;20467;-69
2022/08/25 04:01:53;;;;;;;8.10;6.17;;;19.80;99.90;;;;;;4929395;29;20994;-70
2022/08/25 04:04:42;;;;;;;6.73;6.07;;;19.70;99.90;;;;;;4931724;29;20472;-70
2022/08/25 04:07:31;;;;;;;6.47;5.97;;;19.70;99.90;;;;;;4927862;29;20599;-69
2022/08/25 04:10:24;;;;;;;6.50;5.77;;;19.60;99.90;;;;;;4941367;29;20488;-69
2022/08/25 04:13:22;;;;;;;6.77;6.27;;;19.60;99.90;;;;;;4947500;29;20539;-72
2022/08/25 04:16:13;;;;;;;6.43;5.73;;;19.60;99.90;;;;;;4944318;29;20520;-72
2022/08/25 04:19:04;;;;;;;6.40;5.90;;;19.60;99.90;;;;;;4942597;29;20464;-71
2022/08/25 04:21:54;;;;;;;7.43;6.80;;;19.50;99.90;;;;;;4942167;29;20484;-72
2022/08/25 04:24:44;;;;;;;6.73;6.20;;;19.50;99.90;;;;;;4942682;29;20467;-72
2022/08/25 04:27:32;;;;;;;7.10;6.50;;;19.50;99.90;;;;;;4933724;29;20593;-71
2022/08/25 04:30:27;;;;;;;6.90;6.30;;;19.50;99.90;;;;;;4928706;29;20455;-72
2022/08/25 04:33:28;;;;;;;;;;;;;;;;;;;;;
2022/08/25 04:36:21;;;;;;;6.40;5.90;;;19.40;99.90;;;;;;4928587;29;20499;-71
2022/08/25 04:39:19;;;;;;;6.73;6.23;;;19.40;99.90;;;;;;4928742;29;21034;-71
2022/08/25 04:42:10;;;;;;;6.07;5.57;;;19.50;99.90;;;;;;4926999;29;20942;-72
2022/08/25 04:45:02;;;;;;;6.60;5.97;;;19.50;99.90;;;;;;4928396;29;20472;-72
2022/08/25 04:48:05;;;;;;;6.67;6.17;;;19.50;99.90;;;;;;4924958;29;20842;-72
2022/08/25 04:51:08;;;;;;;7.30;6.60;;;19.50;99.90;;;;;;4927373;29;20523;-72
2022/08/25 04:54:00;;;;;;;6.90;6.10;;;19.40;99.90;;;;;;4923565;29;20964;-69
2022/08/25 04:56:54;;;;;;;6.97;6.37;;;19.50;99.90;;;;;;4932311;29;20538;-69
2022/08/25 04:59:46;;;;;;;7.20;6.40;;;19.40;99.90;;;;;;4933769;29;20451;-70
2022/08/25 05:02:42;;;;;;;6.97;6.27;;;19.50;99.90;;;;;;4927415;29;20568;-69
2022/08/25 05:05:49;;;;;;;6.97;6.20;;;19.50;99.90;;;;;;4929802;29;20558;-69
2022/08/25 05:08:38;;;;;;;6.63;6.13;;;19.40;99.90;;;;;;4927898;29;21089;-69
2022/08/25 05:11:47;;;;;;;7.23;6.53;;;19.40;99.90;;;;;;4930395;29;20459;-72
2022/08/25 05:14:36;;;;;;;6.90;6.20;;;19.40;99.90;;;;;;4914950;28;20554;-72
2022/08/25 05:17:24;;;;;;;7.80;7.10;;;19.40;99.90;;;;;;4921658;29;20464;-72
2022/08/25 05:20:13;;;;;;;8.43;7.73;;;19.50;99.90;;;;;;4929602;29;20459;-72
2022/08/25 05:23:03;;;;;;;7.23;6.53;;;19.40;99.90;;;;;;4933358;29;20571;-71
2022/08/25 05:26:07;;;;;;;7.67;7.00;;;19.50;99.90;;;;;;4926687;29;20479;-72
2022/08/25 05:28:56;;;;;;;8.17;6.60;;;19.50;99.90;;;;;;4933056;29;20488;-72
2022/08/25 05:31:44;;;;;;;8.20;7.50;;;19.50;99.90;;;;;;4928503;29;20448;-72
2022/08/25 05:34:40;;;;;;;8.80;8.03;;;19.50;99.90;;;;;;4929223;29;20464;-72
2022/08/25 05:37:28;;;;;;;8.80;8.13;;;19.50;99.90;;;;;;4924031;29;20452;-72
2022/08/25 05:40:30;;;;;;;8.33;7.63;;;19.50;99.90;;;;;;4929513;29;20499;-71
2022/08/25 05:43:18;;;;;;;9.53;8.73;;;19.50;99.90;;;;;;4930655;29;20830;-71
2022/08/25 05:46:07;;;;;;;10.27;9.30;;;19.50;99.90;;;;;;4929911;29;20626;-72
2022/08/25 05:49:18;;;;;;;10.90;9.80;;;19.50;99.90;;;;;;4929855;29;20522;-73
2022/08/25 05:52:22;;;;;;;11.20;10.20;;;19.50;99.90;;;;;;4931425;29;20563;-72
2022/08/25 05:55:14;;;;;;;10.80;9.80;;;19.50;99.90;;;;;;4929817;29;20498;-72
2022/08/25 06:04:33;;;;;;;12.50;11.30;;;19.50;99.90;;;;;;4920279;29;20464;-72
2022/08/25 06:07:28;;;;;;;13.13;11.90;;;19.40;99.90;;;;;;4924214;29;20804;-73
2022/08/25 06:10:18;;;;;;;14.33;13.03;;;19.50;99.90;;;;;;4932096;28;20554;-72
2022/08/25 06:13:08;;;;;;;14.80;13.30;;;19.50;99.90;;;;;;4933574;29;20463;-73
2022/08/25 06:15:57;;;;;;;15.43;13.87;;;19.40;99.90;;;;;;4933058;29;20552;-73
2022/08/25 06:18:45;;;;;;;15.27;13.87;;;19.40;99.90;;;;;;4932369;28;20995;-73
2022/08/25 06:21:34;;;;;;;15.17;13.80;;;19.40;99.90;;;;;;4932621;29;20675;-73
2022/08/25 06:24:22;;;;;;;15.47;13.97;;;19.40;99.90;;;;;;4934030;28;20558;-73
2022/08/25 06:27:10;;;;;;;13.97;12.67;;;19.40;99.90;;;;;;4932632;29;21033;-72
2022/08/25 06:30:03;;;;;;;15.33;13.47;;;19.40;99.90;;;;;;4931644;29;20938;-73
2022/08/25 06:32:55;;;;;;;13.60;12.33;;;19.40;99.90;;;;;;4927164;29;20453;-72
2022/08/25 06:35:44;;;;;;;14.80;13.43;;;19.40;99.90;;;;;;4931184;29;20488;-72
2022/08/25 06:38:33;;;;;;;15.53;13.93;;;19.40;99.90;;;;;;4927901;28;20542;-73
2022/08/25 06:41:21;;;;;;;15.60;14.20;;;19.50;99.90;;;;;;4930483;29;20590;-73
2022/08/25 06:44:09;;;;;;;13.80;12.50;;;19.50;99.90;;;;;;4931846;29;20618;-73
2022/08/25 06:46:59;;;;;;;15.70;14.20;;;19.50;99.90;;;;;;4931206;29;20487;-74
2022/08/25 06:49:47;;;;;;;13.97;12.67;;;19.60;99.90;;;;;;4930322;29;20452;-72
2022/08/25 06:52:36;;;;;;;15.97;14.33;;;19.60;99.90;;;;;;4931764;29;20468;-72
2022/08/25 06:55:24;;;;;;;16.23;14.73;;;19.60;99.90;;;;;;4930557;29;21117;-74
2022/08/25 06:58:12;;;;;;;15.27;13.70;;;19.60;99.90;;;;;;4927259;29;20522;-72
2022/08/25 07:01:07;;;;;;;15.33;13.83;;;19.60;99.90;;;;;;4931277;29;20460;-72
2022/08/25 07:04:06;;;;;;;15.27;13.87;;;19.60;99.90;;;;;;4930413;29;20465;-72
2022/08/25 07:07:00;;;;;;;14.80;13.30;;;19.70;99.90;;;;;;4932003;29;20475;-74
2022/08/25 07:09:48;;;;;;;15.37;13.77;;;19.70;99.90;;;;;;4930254;28;20491;-73
2022/08/25 07:12:38;;;;;;;14.53;13.10;;;19.70;99.90;;;;;;4929523;29;20508;-73
2022/08/25 07:15:27;;;;;;;14.80;13.40;;;19.70;99.90;;;;;;4926414;29;20581;-73
2022/08/25 07:18:15;;;;;;;14.23;12.93;;;19.70;99.90;;;;;;4931202;28;20482;-73
2022/08/25 07:21:05;;;;;;;14.73;13.33;;;19.70;99.90;;;;;;4931833;28;20488;-73
2022/08/25 07:23:57;;;;;;;15.17;13.10;;;19.80;99.90;;;;;;4932077;29;21181;-73
2022/08/25 07:26:46;;;;;;;14.47;13.03;;;19.80;99.90;;;;;;4931897;28;20642;-73
2022/08/25 07:29:37;;;;;;;15.40;13.80;;;19.80;99.90;;;;;;4927787;29;20550;-73
2022/08/25 07:32:29;;;;;;;14.77;13.37;;;19.90;99.90;;;;;;4929603;29;20452;-73
2022/08/25 07:35:19;;;;;;;15.30;13.80;;;19.90;99.90;;;;;;4930588;29;20479;-73
2022/08/25 07:38:12;;;;;;;14.33;13.03;;;19.90;99.90;;;;;;4932529;28;20473;-73
2022/08/25 07:41:06;;;;;;;16.43;14.93;;;20.00;99.90;;;;;;4933340;29;20455;-72
2022/08/25 07:43:58;;;;;;;13.97;12.60;;;20.00;99.90;;;;;;4932397;28;21003;-73
2022/08/25 07:46:46;;;;;;;13.70;12.50;;;20.00;99.90;;;;;;4929756;29;20474;-73
2022/08/25 07:49:34;;;;;;;12.50;11.20;;;20.00;99.90;;;;;;4928682;29;20480;-73
2022/08/25 07:52:27;;;;;;;11.60;10.60;;;20.00;99.90;;;;;;4928587;29;20449;-73
2022/08/25 07:55:16;;;;;;;12.67;11.47;;;20.00;99.90;;;;;;4929856;29;20491;-73
2022/08/25 07:58:06;;;;;;;14.70;13.40;;;20.10;99.90;;;;;;4928557;29;20464;-73
2022/08/25 08:00:55;;;;;;;13.40;12.10;;;20.10;99.90;;;;;;4931545;29;20456;-73
2022/08/25 08:03:44;;;;;;;13.50;12.30;;;20.10;99.90;;;;;;4929604;28;20515;-73
2022/08/25 08:06:40;;;;;;;13.17;12.10;;;;;;;;;;4930498;29;20483;-73
2022/08/25 08:09:31;;;;;;;11.80;10.80;;;;;;;;;;4930966;29;20494;-73
2022/08/25 08:12:21;;;;;;;12.67;11.67;;;;;;;;;;4930523;29;20544;-74
2022/08/25 08:15:10;;;;;;;13.63;12.43;;;20.10;99.90;;;;;;4930255;29;20490;-73
2022/08/25 08:17:58;;;;;;;11.53;10.43;;;20.20;99.90;;;;;;4931110;28;20607;-73
2022/08/25 08:20:47;;;;;;;12.43;10.93;;;;;;;;;;4930548;28;20463;-73
2022/08/25 08:23:36;;;;;;;12.93;11.63;;;;;;;;;;4931218;29;20619;-73
2022/08/25 08:26:26;;;;;;;12.00;10.90;;;;;;;;;;4931294;29;20475;-73
2022/08/25 08:29:37;;;;;;;11.47;10.37;;;20.30;99.90;;;;;;4931428;28;20466;-73
2022/08/25 08:32:26;;;;;;;11.83;10.60;;;;;;;;;;4931690;29;20965;-73
2022/08/25 08:35:23;;;;;;;12.00;11.00;;;;;;;;;;4933669;29;20538;-73
2022/08/25 08:38:12;;;;;;;12.00;10.90;;;;;;;;;;4933583;29;20451;-73
2022/08/25 08:44:50;;;;;;;14.13;12.93;;;;;;;;;;4931634;29;20452;-73
2022/08/25 08:47:51;;;;;;;12.60;11.50;;;20.30;99.90;;;;;;4931228;29;20598;-73
2022/08/25 08:50:46;;;;;;;12.70;11.50;;;20.60;99.90;;;;;;4932214;29;20535;-73
2022/08/25 08:53:43;;;;;;;13.30;12.17;;;20.60;99.90;;;;;;4933546;29;21045;-73
2022/08/25 08:56:39;;;;;;;12.37;11.30;;;20.60;99.90;;;;;;4934489;29;20474;-73
2022/08/25 08:59:46;;;;;;;13.00;11.90;;;20.60;99.90;;;;;;4929400;28;20460;-73
2022/08/25 09:02:43;;;;;;;13.97;12.70;;;20.60;99.90;;;;;;4933079;28;20628;-73
2022/08/25 09:05:45;;;;;;;12.07;11.10;;;20.60;99.90;;;;;;4933203;29;20511;-73
2022/08/25 09:08:35;;;;;;;12.03;11.03;;;20.60;99.90;;;;;;4933016;29;20841;-73
2022/08/25 09:11:29;;;;;;;12.40;11.30;;;20.60;99.90;;;;;;4932880;29;20515;-73
2022/08/25 09:14:33;;;;;;;14.47;13.20;;;20.70;99.90;;;;;;4929824;29;20455;-73
2022/08/25 09:17:50;;;;;;;12.63;11.53;;;20.70;99.90;;;;;;4932292;29;20550;-73
2022/08/25 09:21:03;;;;;;;12.30;11.07;;;20.70;99.90;;;;;;4932510;29;20531;-73
2022/08/25 09:24:10;;;;;;;13.00;11.80;;;20.80;99.90;;;;;;4930455;29;20846;-73
2022/08/25 09:27:14;;;;;;;13.17;12.07;;;20.90;99.90;;;;;;4933390;29;20498;-73
2022/08/25 09:30:06;;;;;;;12.83;11.60;;;20.90;99.90;;;;;;4932445;29;20496;-73
2022/08/25 09:33:03;;;;;;;13.10;11.90;;;21.00;99.90;;;;;;4933991;28;20465;-74
2022/08/25 09:35:57;;;;;;;15.50;14.20;;;21.00;99.90;;;;;;4932007;29;20472;-73
2022/08/25 09:38:46;;;;;;;15.80;14.53;;;21.10;99.90;;;;;;4930738;29;20464;-73
2022/08/25 09:41:44;;;;;;;15.03;13.80;;;21.20;99.90;;;;;;4933482;28;20558;-73
2022/08/25 09:44:39;;;;;;;17.40;15.93;;;21.30;99.90;;;;;;4932821;29;20891;-73
2022/08/25 09:47:31;;;;;;;15.50;14.20;;;21.40;99.90;;;;;;4933416;29;20530;-73
2022/08/25 09:50:21;;;;;;;15.97;14.67;;;21.40;99.90;;;;;;4931271;29;20460;-73
2022/08/25 09:53:16;;;;;;;15.67;14.37;;;21.50;99.90;;;;;;4934054;29;20455;-73
2022/08/25 09:56:11;;;;;;;16.00;14.50;;;21.60;99.90;;;;;;4933177;29;20470;-73
2022/08/25 09:59:20;;;;;;;15.60;14.40;;;21.70;99.90;;;;;;4932664;28;20548;-73
2022/08/25 10:02:24;;;;;;;38.30;18.00;;;21.80;99.90;;;;;;4932117;29;20571;-73
2022/08/25 10:05:25;;;;;;;15.67;14.03;;;21.90;99.90;;;;;;4930340;28;20491;-73
2022/08/25 10:08:25;;;;;;;14.63;13.53;;;22.00;99.90;;;;;;4929258;29;20468;-74
2022/08/25 10:11:28;;;;;;;13.87;12.83;;;22.10;99.90;;;;;;4930643;28;20575;-73
2022/08/25 10:14:26;;;;;;;13.13;12.10;;;22.20;99.90;;;;;;4931518;28;20542;-73
2022/08/25 10:17:23;;;;;;;11.80;10.90;;;22.30;99.90;;;;;;4930351;29;20459;-73
2022/08/25 10:20:20;;;;;;;11.63;10.73;;;22.40;99.90;;;;;;4931760;29;20460;-73
2022/08/25 10:23:14;;;;;;;11.00;10.00;;;22.60;99.90;;;;;;4931972;29;20856;-73
2022/08/25 10:26:09;;;;;;;10.00;9.10;;;22.70;99.90;;;;;;4931475;29;20567;-73
2022/08/25 10:29:12;;;;;;;9.20;8.50;;;22.80;99.90;;;;;;4932401;29;20495;-73
2022/08/25 10:32:07;;;;;;;8.93;8.23;;;22.90;99.90;;;;;;4930653;28;20538;-73
2022/08/25 10:35:03;;;;;;;9.00;7.67;;;23.10;99.90;;;;;;4930395;29;20648;-73
2022/08/25 10:38:03;;;;;;;8.00;7.30;;;23.20;99.90;;;;;;4933498;29;20523;-74
2022/08/25 10:41:00;;;;;;;7.73;6.40;;;23.40;99.90;;;;;;4933500;28;20480;-73
2022/08/25 10:43:59;;;;;;;9.93;6.60;;;23.60;99.90;;;;;;4931785;29;20506;-74
2022/08/25 10:46:55;;;;;;;11.03;6.60;;;23.70;99.90;;;;;;4930279;29;20565;-73
2022/08/25 10:49:47;;;;;;;6.83;6.20;;;23.90;99.90;;;;;;4929880;29;20471;-73
2022/08/25 10:52:44;;;;;;;6.00;5.50;;;24.00;99.90;;;;;;4930747;29;20559;-73
2022/08/25 10:55:42;;;;;;;5.90;5.40;;;24.10;99.90;;;;;;4928953;28;20984;-72
2022/08/25 10:58:50;;;;;;;5.87;5.37;;;24.20;99.90;;;;;;4932065;29;20488;-72
2022/08/25 11:01:51;;;;;;;6.10;5.60;;;24.40;99.90;;;;;;4930196;29;20873;-73
2022/08/25 11:04:46;;;;;;;5.90;5.30;;;24.50;99.90;;;;;;4930316;29;20836;-73
2022/08/25 11:07:37;;;;;;;5.90;5.40;;;24.60;99.90;;;;;;4932390;28;20463;-73
2022/08/25 11:10:34;;;;;;;6.63;6.03;;;24.70;99.90;;;;;;4930342;29;20543;-73
2022/08/25 11:13:28;;;;;;;5.90;5.33;;;24.80;99.90;;;;;;4932713;29;21026;-73
2022/08/25 11:16:26;;;;;;;8.53;5.90;;;24.90;99.90;;;;;;4930277;29;20480;-73
2022/08/25 11:19:20;;;;;;;7.07;6.20;;;24.90;99.90;;;;;;4932719;29;20550;-73
2022/08/25 11:22:14;;;;;;;5.77;5.27;;;25.00;99.90;;;;;;4931570;29;20455;-73
2022/08/25 11:25:18;;;;;;;5.50;5.00;;;25.00;99.90;;;;;;4926671;29;20533;-73
2022/08/25 11:28:14;;;;;;;5.77;5.27;;;25.10;99.90;;;;;;4924133;29;20465;-73
2022/08/25 11:31:03;;;;;;;5.43;5.00;;;25.10;99.90;;;;;;4927257;28;20451;-74
2022/08/25 11:33:56;;;;;;;5.20;4.70;;;25.20;99.90;;;;;;4928053;29;20471;-74
2022/08/25 11:36:55;;;;;;;6.43;5.83;;;25.30;99.90;;;;;;4929550;29;20570;-73
2022/08/25 11:40:09;;;;;;;5.90;5.40;;;25.40;99.90;;;;;;4930858;29;20460;-73
2022/08/25 11:43:14;;;;;;;5.53;4.83;;;25.70;99.90;;;;;;4931141;29;20491;-73
2022/08/25 11:46:25;;;;;;;6.50;5.00;;;25.80;99.90;;;;;;4929840;29;20482;-73
2022/08/25 11:49:44;;;;;;;5.40;4.90;;;25.90;99.90;;;;;;4929362;29;20951;-72
2022/08/25 11:52:54;;;;;;;5.50;5.10;;;26.10;99.90;;;;;;4929272;29;20456;-73
2022/08/25 11:55:49;;;;;;;5.10;4.70;;;26.30;99.90;;;;;;4929484;29;20470;-73
2022/08/25 11:58:42;;;;;;;5.30;4.87;;;26.30;99.90;;;;;;4929771;29;20463;-74
2022/08/25 12:02:00;;;;;;;5.50;5.00;;;26.50;99.90;;;;;;4926722;29;20452;-73
2022/08/25 12:04:54;;;;;;;5.20;4.70;;;26.60;99.90;;;;;;4924560;29;20496;-73
2022/08/25 12:11:09;;;;;;;5.37;4.50;;;26.90;99.90;;;;;;4922037;29;20476;-74
2022/08/25 12:14:14;;;;;;;4.80;4.30;;;27.10;99.90;;;;;;4924594;29;20460;-73
2022/08/25 12:17:24;;;;;;;4.40;4.10;;;27.20;99.90;;;;;;4919955;29;20464;-75
2022/08/25 12:20:14;;;;;;;5.13;4.50;;;27.30;99.90;;;;;;4930301;29;20526;-75
2022/08/25 12:23:04;;;;;;;4.40;4.10;;;27.40;99.90;;;;;;4923463;29;20643;-75
2022/08/25 12:25:55;;;;;;;4.97;4.57;;;27.50;99.90;;;;;;4927839;29;20484;-74
2022/08/25 12:28:52;;;;;;;4.70;4.20;;;27.70;99.90;;;;;;4926460;29;20495;-74
2022/08/25 12:32:05;;;;;;;4.40;4.10;;;27.90;99.90;;;;;;4925774;29;20456;-74
2022/08/25 12:35:28;;;;;;;4.57;4.27;;;28.00;99.90;;;;;;4925040;29;20881;-74
2022/08/25 12:38:27;;;;;;;5.10;4.60;;;28.10;99.90;;;;;;4928723;29;20471;-73
2022/08/25 12:41:20;;;;;;;5.20;4.70;;;28.20;99.90;;;;;;4924391;28;20468;-74
2022/08/25 12:44:37;;;;;;;5.67;5.03;;;28.40;99.90;;;;;;4922764;29;20476;-74
2022/08/25 12:47:31;;;;;;;6.27;4.83;;;28.60;99.90;;;;;;4923354;29;20456;-74
2022/08/25 12:50:38;;;;;;;4.60;4.20;;;28.80;99.90;;;;;;4915613;29;20455;-75
2022/08/25 12:53:34;;;;;;;4.53;4.23;;;29.00;99.90;;;;;;4923154;29;20516;-74
2022/08/25 12:56:31;;;;;;;4.80;4.33;;;29.20;99.90;;;;;;4924004;29;20479;-74
2022/08/25 12:59:31;;;;;;;4.33;3.83;;;29.40;99.90;;;;;;4918878;29;20475;-74
2022/08/25 13:03:02;;;;;;;4.20;3.90;;;29.60;99.90;;;;;;4919497;29;20539;-74
2022/08/25 13:06:14;;;;;;;4.47;4.10;;;29.90;99.90;;;;;;4884364;29;20477;-74
2022/08/25 13:09:31;;;;;;;4.37;4.00;;;30.10;99.90;;;;;;4889134;29;21070;-72
2022/08/25 13:12:24;;;;;;;4.77;4.37;;;30.20;99.90;;;;;;4920753;29;20551;-73
2022/08/25 13:15:15;;;;;;;4.47;4.17;;;30.30;99.90;;;;;;4918715;29;20511;-73
2022/08/25 13:18:22;;;;;;;4.43;4.07;;;30.40;99.90;;;;;;4928970;29;20464;-72
2022/08/25 13:21:16;;;;;;;4.30;3.90;;;30.50;99.90;;;;;;4929091;29;20574;-73
2022/08/25 13:24:09;;;;;;;4.40;4.00;;;30.40;99.90;;;;;;4927746;29;20988;-73
2022/08/25 13:27:00;;;;;;;4.50;4.10;;;30.50;99.90;;;;;;4927717;29;20980;-74
2022/08/25 13:29:55;;;;;;;4.30;3.90;;;30.50;99.90;;;;;;4928934;29;20456;-73
2022/08/25 13:32:44;;;;;;;4.70;4.30;;;;;;;;;;4926220;29;20607;-73
2022/08/25 13:35:32;;;;;;;4.80;4.40;;;;;;;;;;4930675;29;21063;-73
2022/08/25 13:38:21;;;;;;;4.87;4.07;;;;;;;;;;4932886;29;20463;-74
2022/08/25 13:41:10;;;;;;;4.30;4.00;;;;;;;;;;4930408;29;20460;-74
2022/08/25 13:43:59;;;;;;;4.30;3.90;;;;;;;;;;4931228;28;20468;-73
2022/08/25 13:47:05;;;;;;;3.83;3.53;;;;;;;;;;4929493;29;20563;-73
2022/08/25 13:49:55;;;;;;;4.00;3.70;;;;;;;;;;4926020;29;20538;-72
2022/08/25 13:52:49;;;;;;;4.23;3.93;;;;;;;;;;4928445;29;20456;-74
2022/08/25 13:55:42;;;;;;;4.63;3.60;;;;;;;;;;4937444;29;20878;-75
2022/08/25 13:58:43;;;;;;;4.30;3.90;;;;;;;;;;4941524;29;20464;-72
2022/08/25 14:01:35;;;;;;;4.43;4.03;;;;;;;;;;4943820;29;20515;-72
2022/08/25 14:04:47;;;;;;;4.40;4.10;;;;;;;;;;4940995;29;20472;-72
2022/08/25 14:07:52;;;;;;;4.47;4.17;;;;;;;;;;4934023;29;20465;-74
2022/08/25 14:11:09;;;;;;;5.07;4.47;;;;;;;;;;4931856;29;20664;-75
2022/08/25 14:14:03;;;;;;;4.73;4.37;;;;;;;;;;4919978;28;20467;-73
2022/08/25 14:16:54;;;;;;;4.87;4.57;;;;;;;;;;4915280;29;20480;-73
2022/08/25 14:19:47;;;;;;;4.33;4.03;;;;;;;;;;4919858;28;20456;-74
2022/08/25 14:22:37;;;;;;;5.37;4.43;;;;;;;;;;4921021;29;20456;-74
2022/08/25 14:25:35;;;;;;;5.53;3.90;;;;;;;;;;4928776;29;21042;-73
2022/08/25 14:28:30;;;;;;;4.50;4.20;;;;;;;;;;4926385;29;20489;-74
2022/08/25 14:31:26;;;;;;;4.83;4.03;;;;;;;;;;4927438;29;20975;-73
2022/08/25 14:34:20;;;;;;;4.50;4.10;;;;;;;;;;4927501;29;20844;-73
2022/08/25 14:37:10;;;;;;;4.20;3.90;;;;;;;;;;4925737;28;20560;-74
2022/08/25 14:40:03;;;;;;;4.60;4.30;;;;;;;;;;4922196;29;20468;-73
2022/08/25 14:42:51;;;;;;;4.83;4.33;;;;;;;;;;4926754;29;20456;-74
2022/08/25 14:45:43;;;;;;;4.83;4.43;;;;;;;;;;4925885;29;20515;-74
2022/08/25 14:48:39;;;;;;;4.50;4.20;;;;;;;;;;4923666;29;20463;-73
2022/08/25 14:51:31;;;;;;;5.03;4.63;;;;;;;;;;4923670;29;20947;-74
2022/08/25 14:54:26;;;;;;;5.20;4.00;;;;;;;;;;4924587;29;20463;-73
2022/08/25 14:57:14;;;;;;;4.70;4.40;;;;;;;;;;4922979;29;20570;-73
2022/08/25 15:00:05;;;;;;;5.00;4.60;;;;;;;;;;4918632;29;21185;-73
2022/08/25 15:02:58;;;;;;;5.50;5.10;;;;;;;;;;4922824;29;20499;-73
2022/08/25 15:05:46;;;;;;;5.20;4.67;;;;;;;;;;4926192;29;20999;-73
2022/08/25 15:11:43;;;;;;;4.80;4.40;;;;;;;;;;4923792;29;20875;-73
2022/08/25 15:14:31;;;;;;;5.20;4.73;;;;;;;;;;4924116;29;20944;-72
2022/08/25 15:17:20;;;;;;;4.80;4.50;;;;;;;;;;4926715;29;20456;-73
2022/08/25 15:20:11;;;;;;;5.50;5.00;;;;;;;;;;4926189;29;20472;-73
2022/08/25 15:23:02;;;;;;;5.70;5.20;;;;;;;;;;4927982;29;20456;-73
2022/08/25 15:25:52;;;;;;;6.03;4.87;;;;;;;;;;4927436;28;20900;-73
2022/08/25 15:28:43;;;;;;;5.03;4.73;;;;;;;;;;4928749;29;21121;-73
2022/08/25 15:31:32;;;;;;;4.90;4.50;;;;;;;;;;4927190;29;20590;-73
2022/08/25 15:34:20;;;;;;;5.20;4.73;;;;;;;;;;4926335;29;20448;-73
2022/08/25 15:37:11;;;;;;;5.40;5.00;;;;;;;;;;4928145;29;20550;-73
2022/08/25 15:40:03;;;;;;;4.87;4.43;;;;;;;;;;4921173;29;20528;-73
2022/08/25 15:42:54;;;;;;;5.60;5.07;;;;;;;;;;4916449;29;20457;-73
2022/08/25 15:45:43;;;;;;;5.00;4.60;;;;;;;;;;4925634;29;21201;-73